sensor_id;sensor_type;location;lat;lon;timestamp;pressure;altitude;pressure_sealevel;temperature;humidity
81125;BME280;71444;52.114;5.424;2023-07-31T00:00:28;101063.75;;;14.51;99.23
81125;BME280;71444;52.114;5.424;2023-07-31T00:03:08;101065.63;;;14.51;99.40
81125;BME280;71444;52.114;5.424;2023-07-31T00:05:48;101067.63;;;14.57;99.13
81125;BME280;71444;52.114;5.424;2023-07-31T00:08:30;101060.78;;;14.61;99.22
81125;BME280;71444;52.114;5.424;2023-07-31T00:11:10;101047.50;;;14.66;99.18
81125;BME280;71444;52.114;5.424;2023-07-31T00:13:50;101036.91;;;14.71;99.57
81125;BME280;71444;52.114;5.424;2023-07-31T00:16:30;101029.19;;;14.75;99.50
81125;BME280;71444;52.114;5.424;2023-07-31T00:19:09;101027.81;;;14.79;99.14
81125;BME280;71444;52.114;5.424;2023-07-31T00:21:49;101022.38;;;14.79;99.51
81125;BME280;71444;52.114;5.424;2023-07-31T00:24:29;101020.69;;;14.78;99.07
81125;BME280;71444;52.114;5.424;2023-07-31T00:27:08;101015.25;;;14.78;99.39
81125;BME280;71444;52.114;5.424;2023-07-31T00:29:48;101024.06;;;14.80;99.45
81125;BME280;71444;52.114;5.424;2023-07-31T00:32:27;101019.75;;;14.85;99.62
81125;BME280;71444;52.114;5.424;2023-07-31T00:35:07;101013.56;;;14.91;99.41
81125;BME280;71444;52.114;5.424;2023-07-31T00:37:47;101007.19;;;14.99;99.45
81125;BME280;71444;52.114;5.424;2023-07-31T00:40:27;101014.41;;;15.07;99.64
81125;BME280;71444;52.114;5.424;2023-07-31T00:43:06;101005.56;;;15.19;99.83
81125;BME280;71444;52.114;5.424;2023-07-31T00:45:46;101004.03;;;15.32;99.37
81125;BME280;71444;52.114;5.424;2023-07-31T00:48:26;101000.81;;;15.43;99.37
81125;BME280;71444;52.114;5.424;2023-07-31T00:51:07;101003.69;;;15.56;100.00
81125;BME280;71444;52.114;5.424;2023-07-31T00:53:47;100992.13;;;15.69;99.97
81125;BME280;71444;52.114;5.424;2023-07-31T00:56:28;100994.09;;;15.75;99.58
81125;BME280;71444;52.114;5.424;2023-07-31T00:59:08;100988.06;;;15.80;99.55
81125;BME280;71444;52.114;5.424;2023-07-31T01:01:47;100993.78;;;15.85;99.64
81125;BME280;71444;52.114;5.424;2023-07-31T01:04:27;100995.06;;;15.89;99.75
81125;BME280;71444;52.114;5.424;2023-07-31T01:08:15;100993.81;;;15.91;99.53
81125;BME280;71444;52.114;5.424;2023-07-31T01:10:50;100988.84;;;15.95;99.21
81125;BME280;71444;52.114;5.424;2023-07-31T01:13:35;100984.88;;;15.97;99.36
81125;BME280;71444;52.114;5.424;2023-07-31T01:16:15;100984.03;;;15.97;99.36
81125;BME280;71444;52.114;5.424;2023-07-31T01:18:55;100979.63;;;15.96;99.40
81125;BME280;71444;52.114;5.424;2023-07-31T01:24:54;101003.94;;;15.97;99.59
81125;BME280;71444;52.114;5.424;2023-07-31T01:27:57;100997.25;;;16.00;99.41
81125;BME280;71444;52.114;5.424;2023-07-31T01:30:43;100994.53;;;16.00;99.42
81125;BME280;71444;52.114;5.424;2023-07-31T01:33:27;100992.66;;;16.00;99.63
81125;BME280;71444;52.114;5.424;2023-07-31T01:36:14;100986.56;;;15.98;99.19
81125;BME280;71444;52.114;5.424;2023-07-31T01:38:58;100989.47;;;15.97;99.36
81125;BME280;71444;52.114;5.424;2023-07-31T01:41:39;100988.84;;;15.95;99.37
81125;BME280;71444;52.114;5.424;2023-07-31T01:44:18;100990.72;;;15.94;98.94
81125;BME280;71444;52.114;5.424;2023-07-31T01:46:58;100992.59;;;15.94;99.23
81125;BME280;71444;52.114;5.424;2023-07-31T01:49:38;100985.28;;;15.94;99.28
81125;BME280;71444;52.114;5.424;2023-07-31T01:52:18;100991.94;;;15.92;99.06
81125;BME280;71444;52.114;5.424;2023-07-31T01:54:57;100985.28;;;15.94;99.16
81125;BME280;71444;52.114;5.424;2023-07-31T01:57:40;100975.22;;;15.95;98.73
81125;BME280;71444;52.114;5.424;2023-07-31T02:00:20;100979.81;;;15.94;98.76
81125;BME280;71444;52.114;5.424;2023-07-31T02:03:00;100976.06;;;15.95;98.71
81125;BME280;71444;52.114;5.424;2023-07-31T02:05:46;100972.88;;;15.92;98.91
81125;BME280;71444;52.114;5.424;2023-07-31T02:08:25;100982.91;;;15.91;99.25
81125;BME280;71444;52.114;5.424;2023-07-31T02:11:04;100973.06;;;15.90;99.30
81125;BME280;71444;52.114;5.424;2023-07-31T02:13:43;100973.28;;;15.89;98.91
81125;BME280;71444;52.114;5.424;2023-07-31T02:16:31;100962.56;;;15.87;99.26
81125;BME280;71444;52.114;5.424;2023-07-31T02:19:11;100958.56;;;15.83;99.22
81125;BME280;71444;52.114;5.424;2023-07-31T02:21:50;100949.94;;;15.80;99.09
81125;BME280;71444;52.114;5.424;2023-07-31T02:24:29;100936.72;;;15.76;99.24
81125;BME280;71444;52.114;5.424;2023-07-31T02:27:10;100951.56;;;15.74;99.33
81125;BME280;71444;52.114;5.424;2023-07-31T02:29:49;100948.00;;;15.73;99.10
81125;BME280;71444;52.114;5.424;2023-07-31T02:32:28;100945.44;;;15.72;99.15
81125;BME280;71444;52.114;5.424;2023-07-31T02:35:07;100946.13;;;15.74;99.31
81125;BME280;71444;52.114;5.424;2023-07-31T02:37:47;100941.69;;;15.73;99.11
81125;BME280;71444;52.114;5.424;2023-07-31T02:40:27;100941.69;;;15.73;99.21
81125;BME280;71444;52.114;5.424;2023-07-31T02:43:07;100943.56;;;15.72;98.92
81125;BME280;71444;52.114;5.424;2023-07-31T02:45:52;100942.72;;;15.72;98.93
81125;BME280;71444;52.114;5.424;2023-07-31T02:48:32;100944.41;;;15.73;99.20
81125;BME280;71444;52.114;5.424;2023-07-31T02:51:11;100940.47;;;15.75;99.13
81125;BME280;71444;52.114;5.424;2023-07-31T02:53:51;100936.06;;;15.74;99.30
81125;BME280;71444;52.114;5.424;2023-07-31T02:56:36;100928.94;;;15.73;99.33
81125;BME280;71444;52.114;5.424;2023-07-31T02:59:17;100927.91;;;15.74;98.85
81125;BME280;71444;52.114;5.424;2023-07-31T03:01:57;100926.03;;;15.75;98.81
81125;BME280;71444;52.114;5.424;2023-07-31T03:04:37;100924.97;;;15.76;99.05
81125;BME280;71444;52.114;5.424;2023-07-31T03:07:17;100930.22;;;15.77;98.99
81125;BME280;71444;52.114;5.424;2023-07-31T03:09:57;100931.28;;;15.76;99.08
81125;BME280;71444;52.114;5.424;2023-07-31T03:12:37;100925.81;;;15.76;98.60
81125;BME280;71444;52.114;5.424;2023-07-31T03:15:17;100931.28;;;15.76;98.22
81125;BME280;71444;52.114;5.424;2023-07-31T03:17:57;100931.66;;;15.73;98.52
81125;BME280;71444;52.114;5.424;2023-07-31T03:20:36;100928.94;;;15.73;98.42
81125;BME280;71444;52.114;5.424;2023-07-31T03:23:16;100924.50;;;15.72;98.51
81125;BME280;71444;52.114;5.424;2023-07-31T03:26:01;100927.44;;;15.71;98.75
81125;BME280;71444;52.114;5.424;2023-07-31T03:28:42;100917.38;;;15.71;98.33
81125;BME280;71444;52.114;5.424;2023-07-31T03:31:22;100923.03;;;15.70;98.08
81125;BME280;71444;52.114;5.424;2023-07-31T03:34:02;100923.88;;;15.70;98.22
81125;BME280;71444;52.114;5.424;2023-07-31T03:36:47;100928.47;;;15.70;97.91
81125;BME280;71444;52.114;5.424;2023-07-31T03:39:35;100918.44;;;15.70;98.13
81125;BME280;71444;52.114;5.424;2023-07-31T03:42:18;100919.47;;;15.69;97.47
81125;BME280;71444;52.114;5.424;2023-07-31T03:44:57;100916.94;;;15.68;97.29
81125;BME280;71444;52.114;5.424;2023-07-31T03:47:37;100916.09;;;15.67;97.30
81125;BME280;71444;52.114;5.424;2023-07-31T03:50:17;100920.72;;;15.67;97.15
81125;BME280;71444;52.114;5.424;2023-07-31T03:52:56;100920.72;;;15.67;97.67
81125;BME280;71444;52.114;5.424;2023-07-31T03:55:36;100918.00;;;15.67;97.49
81125;BME280;71444;52.114;5.424;2023-07-31T03:58:16;100915.25;;;15.67;97.13
81125;BME280;71444;52.114;5.424;2023-07-31T04:00:56;100914.44;;;15.66;97.49
81125;BME280;71444;52.114;5.424;2023-07-31T04:03:35;100913.59;;;15.66;97.78
81125;BME280;71444;52.114;5.424;2023-07-31T04:06:15;100909.38;;;15.63;97.54
81125;BME280;71444;52.114;5.424;2023-07-31T04:08:56;100906.66;;;15.63;96.39
81125;BME280;71444;52.114;5.424;2023-07-31T04:11:35;100901.59;;;15.60;96.79
81125;BME280;71444;52.114;5.424;2023-07-31T04:14:15;100896.22;;;15.52;97.00
81125;BME280;71444;52.114;5.424;2023-07-31T04:16:55;100887.00;;;15.46;97.39
81125;BME280;71444;52.114;5.424;2023-07-31T04:19:34;100890.28;;;15.42;97.23
81125;BME280;71444;52.114;5.424;2023-07-31T04:22:14;100877.91;;;15.39;97.63
81125;BME280;71444;52.114;5.424;2023-07-31T04:24:53;100875.38;;;15.38;97.77
81125;BME280;71444;52.114;5.424;2023-07-31T04:27:32;100869.75;;;15.39;97.53
81125;BME280;71444;52.114;5.424;2023-07-31T04:30:14;100874.16;;;15.40;97.06
81125;BME280;71444;52.114;5.424;2023-07-31T04:32:53;100870.19;;;15.43;97.50
81125;BME280;71444;52.114;5.424;2023-07-31T04:35:33;100878.81;;;15.46;97.35
81125;BME280;71444;52.114;5.424;2023-07-31T04:38:15;100888.47;;;15.49;96.87
81125;BME280;71444;52.114;5.424;2023-07-31T04:40:55;100880.94;;;15.51;97.15
81125;BME280;71444;52.114;5.424;2023-07-31T04:43:34;100882.19;;;15.48;97.38
81125;BME280;71444;52.114;5.424;2023-07-31T04:46:17;100884.00;;;15.41;97.23
81125;BME280;71444;52.114;5.424;2023-07-31T04:48:57;100876.03;;;15.40;97.29
81125;BME280;71444;52.114;5.424;2023-07-31T04:51:36;100880.44;;;15.41;97.54
81125;BME280;71444;52.114;5.424;2023-07-31T04:54:16;100873.31;;;15.40;97.46
81125;BME280;71444;52.114;5.424;2023-07-31T04:56:56;100867.22;;;15.38;98.06
81125;BME280;71444;52.114;5.424;2023-07-31T04:59:35;100864.06;;;15.34;97.67
81125;BME280;71444;52.114;5.424;2023-07-31T05:02:15;100857.94;;;15.32;98.04
81125;BME280;71444;52.114;5.424;2023-07-31T05:04:55;100852.91;;;15.29;98.24
81125;BME280;71444;52.114;5.424;2023-07-31T05:07:35;100857.31;;;15.30;98.57
81125;BME280;71444;52.114;5.424;2023-07-31T05:10:15;100850.38;;;15.28;98.45
81125;BME280;71444;52.114;5.424;2023-07-31T05:12:55;100851.41;;;15.27;98.55
81125;BME280;71444;52.114;5.424;2023-07-31T05:15:35;100858.53;;;15.28;98.58
81125;BME280;71444;52.114;5.424;2023-07-31T05:18:14;100849.94;;;15.24;98.64
81125;BME280;71444;52.114;5.424;2023-07-31T05:20:54;100854.13;;;15.27;98.87
81125;BME280;71444;52.114;5.424;2023-07-31T05:23:34;100857.22;;;15.24;99.04
81125;BME280;71444;52.114;5.424;2023-07-31T05:26:13;100853.66;;;15.23;99.05
81125;BME280;71444;52.114;5.424;2023-07-31T05:28:53;100851.16;;;15.21;98.96
81125;BME280;71444;52.114;5.424;2023-07-31T05:31:33;100850.06;;;15.16;98.68
81125;BME280;71444;52.114;5.424;2023-07-31T05:34:12;100837.50;;;15.15;99.19
81125;BME280;71444;52.114;5.424;2023-07-31T05:37:04;100850.25;;;15.14;98.89
81125;BME280;71444;52.114;5.424;2023-07-31T05:39:54;100835.16;;;15.12;99.13
81125;BME280;71444;52.114;5.424;2023-07-31T05:42:34;100827.19;;;15.10;99.09
81125;BME280;71444;52.114;5.424;2023-07-31T05:45:16;100820.91;;;15.10;99.16
81125;BME280;71444;52.114;5.424;2023-07-31T05:47:56;100821.75;;;15.10;99.28
81125;BME280;71444;52.114;5.424;2023-07-31T05:50:36;100820.69;;;15.11;99.39
81125;BME280;71444;52.114;5.424;2023-07-31T05:53:17;100808.78;;;15.12;99.30
81125;BME280;71444;52.114;5.424;2023-07-31T05:55:57;100818.63;;;15.13;99.78
81125;BME280;71444;52.114;5.424;2023-07-31T05:58:37;100819.28;;;15.15;99.78
81125;BME280;71444;52.114;5.424;2023-07-31T06:01:17;100818.47;;;15.15;99.41
81125;BME280;71444;52.114;5.424;2023-07-31T06:03:56;100803.34;;;15.12;99.28
81125;BME280;71444;52.114;5.424;2023-07-31T06:06:36;100811.13;;;15.15;99.57
81125;BME280;71444;52.114;5.424;2023-07-31T06:09:16;100800.91;;;15.17;99.70
81125;BME280;71444;52.114;5.424;2023-07-31T06:11:55;100806.97;;;15.19;99.90
81125;BME280;71444;52.114;5.424;2023-07-31T06:14:39;100800.91;;;15.17;99.83
81125;BME280;71444;52.114;5.424;2023-07-31T06:17:19;100798.19;;;15.17;99.34
81125;BME280;71444;52.114;5.424;2023-07-31T06:19:59;100795.25;;;15.19;99.61
81125;BME280;71444;52.114;5.424;2023-07-31T06:22:39;100798.81;;;15.19;99.91
81125;BME280;71444;52.114;5.424;2023-07-31T06:25:19;100800.97;;;15.24;99.73
81125;BME280;71444;52.114;5.424;2023-07-31T06:28:00;100790.94;;;15.25;99.75
81125;BME280;71444;52.114;5.424;2023-07-31T06:30:39;100792.59;;;15.26;99.55
81125;BME280;71444;52.114;5.424;2023-07-31T06:33:19;100790.31;;;15.29;99.80
81125;BME280;71444;52.114;5.424;2023-07-31T06:35:59;100780.09;;;15.31;99.68
81125;BME280;71444;52.114;5.424;2023-07-31T06:38:41;100779.72;;;15.34;99.57
81125;BME280;71444;52.114;5.424;2023-07-31T06:41:21;100780.97;;;15.38;99.75
81125;BME280;71444;52.114;5.424;2023-07-31T06:44:04;100764.47;;;15.40;99.48
81125;BME280;71444;52.114;5.424;2023-07-31T06:46:44;100764.53;;;15.46;99.55
81125;BME280;71444;52.114;5.424;2023-07-31T06:49:31;100767.88;;;15.48;98.98
81125;BME280;71444;52.114;5.424;2023-07-31T06:52:11;100763.91;;;15.51;99.40
81125;BME280;71444;52.114;5.424;2023-07-31T06:55:04;100770.88;;;15.54;99.14
81125;BME280;71444;52.114;5.424;2023-07-31T06:58:05;100757.06;;;15.55;99.40
81125;BME280;71444;52.114;5.424;2023-07-31T07:00:45;100756.84;;;15.57;99.45
81125;BME280;71444;52.114;5.424;2023-07-31T07:03:28;100759.44;;;15.65;99.70
81125;BME280;71444;52.114;5.424;2023-07-31T07:06:08;100751.91;;;15.67;99.45
81125;BME280;71444;52.114;5.424;2023-07-31T07:08:47;100745.22;;;15.69;99.52
81125;BME280;71444;52.114;5.424;2023-07-31T07:11:37;100751.97;;;15.73;99.58
81125;BME280;71444;52.114;5.424;2023-07-31T07:14:17;100741.50;;;15.77;99.85
81125;BME280;71444;52.114;5.424;2023-07-31T07:17:04;100750.75;;;15.83;99.56
81125;BME280;71444;52.114;5.424;2023-07-31T07:19:48;100749.94;;;15.89;99.33
81125;BME280;71444;52.114;5.424;2023-07-31T07:22:27;100737.19;;;15.89;99.24
81125;BME280;71444;52.114;5.424;2023-07-31T07:25:12;100741.56;;;15.90;99.52
81125;BME280;71444;52.114;5.424;2023-07-31T07:27:52;100743.25;;;15.91;99.07
81125;BME280;71444;52.114;5.424;2023-07-31T07:30:33;100743.09;;;15.93;99.20
81125;BME280;71444;52.114;5.424;2023-07-31T07:33:13;100735.75;;;15.93;99.59
81125;BME280;71444;52.114;5.424;2023-07-31T07:35:53;100750.63;;;15.97;99.72
81125;BME280;71444;52.114;5.424;2023-07-31T07:38:32;100754.00;;;15.99;99.49
81125;BME280;71444;52.114;5.424;2023-07-31T07:41:22;100739.53;;;15.99;99.64
81125;BME280;71444;52.114;5.424;2023-07-31T07:44:05;100735.97;;;15.98;99.63
81125;BME280;71444;52.114;5.424;2023-07-31T07:46:53;100740.16;;;16.01;99.48
81125;BME280;71444;52.114;5.424;2023-07-31T07:49:41;100728.22;;;16.02;99.87
81125;BME280;71444;52.114;5.424;2023-07-31T07:52:24;100734.34;;;16.04;99.53
81125;BME280;71444;52.114;5.424;2023-07-31T07:55:07;100730.34;;;16.06;99.55
81125;BME280;71444;52.114;5.424;2023-07-31T07:57:47;100725.97;;;16.12;100.00
81125;BME280;71444;52.114;5.424;2023-07-31T08:00:28;100713.22;;;16.19;100.00
81125;BME280;71444;52.114;5.424;2023-07-31T08:03:15;100716.56;;;16.21;99.74
81125;BME280;71444;52.114;5.424;2023-07-31T08:05:59;100725.41;;;16.23;99.44
81125;BME280;71444;52.114;5.424;2023-07-31T08:08:39;100712.63;;;16.24;99.46
81125;BME280;71444;52.114;5.424;2023-07-31T08:11:32;100726.88;;;16.26;99.23
81125;BME280;71444;52.114;5.424;2023-07-31T08:14:12;100715.56;;;16.29;99.38
81125;BME280;71444;52.114;5.424;2023-07-31T08:16:52;100715.38;;;16.37;99.42
81125;BME280;71444;52.114;5.424;2023-07-31T08:19:32;100716.66;;;16.48;99.29
81125;BME280;71444;52.114;5.424;2023-07-31T08:22:11;100718.59;;;16.54;98.87
81125;BME280;71444;52.114;5.424;2023-07-31T08:24:52;100719.84;;;16.64;99.37
81125;BME280;71444;52.114;5.424;2023-07-31T08:27:32;100703.53;;;16.71;98.92
81125;BME280;71444;52.114;5.424;2023-07-31T08:30:12;100715.09;;;16.73;98.27
81125;BME280;71444;52.114;5.424;2023-07-31T08:32:53;100706.06;;;16.73;98.31
81125;BME280;71444;52.114;5.424;2023-07-31T08:35:33;100701.25;;;16.75;97.93
81125;BME280;71444;52.114;5.424;2023-07-31T08:38:13;100706.28;;;16.78;97.88
81125;BME280;71444;52.114;5.424;2023-07-31T08:40:52;100693.69;;;16.83;97.66
81125;BME280;71444;52.114;5.424;2023-07-31T08:43:55;100707.75;;;16.94;97.13
81125;BME280;71444;52.114;5.424;2023-07-31T08:46:45;100694.09;;;17.00;97.50
81125;BME280;71444;52.114;5.424;2023-07-31T08:49:35;100693.94;;;17.02;96.60
81125;BME280;71444;52.114;5.424;2023-07-31T08:52:26;100701.44;;;17.00;96.41
81125;BME280;71444;52.114;5.424;2023-07-31T08:55:13;100696.22;;;17.11;97.00
81125;BME280;71444;52.114;5.424;2023-07-31T08:58:03;100697.47;;;17.22;96.73
81125;BME280;71444;52.114;5.424;2023-07-31T09:00:48;100692.03;;;17.22;97.02
81125;BME280;71444;52.114;5.424;2023-07-31T09:03:41;100700.22;;;17.22;96.48
81125;BME280;71444;52.114;5.424;2023-07-31T09:06:32;100683.41;;;17.18;96.29
81125;BME280;71444;52.114;5.424;2023-07-31T09:09:21;100692.22;;;17.14;96.55
81125;BME280;71444;52.114;5.424;2023-07-31T09:12:10;100704.00;;;17.14;97.35
81125;BME280;71444;52.114;5.424;2023-07-31T09:14:58;100701.88;;;17.10;96.51
81125;BME280;71444;52.114;5.424;2023-07-31T09:17:46;100705.44;;;17.10;97.18
81125;BME280;71444;52.114;5.424;2023-07-31T09:20:36;100690.78;;;17.05;97.35
81125;BME280;71444;52.114;5.424;2023-07-31T09:23:24;100694.31;;;16.99;97.82
81125;BME280;71444;52.114;5.424;2023-07-31T09:26:35;100691.38;;;17.00;97.75
81125;BME280;71444;52.114;5.424;2023-07-31T09:29:24;100685.94;;;17.07;98.03
81125;BME280;71444;52.114;5.424;2023-07-31T09:32:16;100690.34;;;17.08;97.44
81125;BME280;71444;52.114;5.424;2023-07-31T09:35:32;100681.53;;;17.06;97.43
81125;BME280;71444;52.114;5.424;2023-07-31T09:38:22;100681.09;;;17.15;97.65
81125;BME280;71444;52.114;5.424;2023-07-31T09:41:05;100678.78;;;17.26;97.04
81125;BME280;71444;52.114;5.424;2023-07-31T09:43:53;100681.09;;;17.42;96.63
81125;BME280;71444;52.114;5.424;2023-07-31T09:46:37;100668.03;;;17.51;96.13
81125;BME280;71444;52.114;5.424;2023-07-31T09:49:17;100674.09;;;17.59;96.42
81125;BME280;71444;52.114;5.424;2023-07-31T09:53:11;100676.19;;;17.77;96.46
81125;BME280;71444;52.114;5.424;2023-07-31T09:55:51;100684.16;;;17.78;96.22
81125;BME280;71444;52.114;5.424;2023-07-31T09:58:42;100673.25;;;17.72;95.46
81125;BME280;71444;52.114;5.424;2023-07-31T10:01:22;100676.38;;;17.69;95.86
81125;BME280;71444;52.114;5.424;2023-07-31T10:04:01;100675.53;;;17.68;95.64
81125;BME280;71444;52.114;5.424;2023-07-31T10:06:44;100679.53;;;17.66;96.34
81125;BME280;71444;52.114;5.424;2023-07-31T10:09:28;100665.63;;;17.87;96.47
81125;BME280;71444;52.114;5.424;2023-07-31T10:12:12;100670.25;;;17.87;95.75
81125;BME280;71444;52.114;5.424;2023-07-31T10:15:05;100671.13;;;17.81;96.31
81125;BME280;71444;52.114;5.424;2023-07-31T10:17:55;100669.44;;;17.80;95.28
81125;BME280;71444;52.114;5.424;2023-07-31T10:20:44;100685.44;;;17.69;95.41
81125;BME280;71444;52.114;5.424;2023-07-31T10:23:34;100677.88;;;17.65;95.09
81125;BME280;71444;52.114;5.424;2023-07-31T10:26:25;100678.72;;;17.72;96.44
81125;BME280;71444;52.114;5.424;2023-07-31T10:29:15;100678.31;;;17.62;96.27
81125;BME280;71444;52.114;5.424;2023-07-31T10:32:06;100676.03;;;17.52;97.03
81125;BME280;71444;52.114;5.424;2023-07-31T10:34:58;100680.44;;;17.46;97.61
81125;BME280;71444;52.114;5.424;2023-07-31T10:37:48;100674.75;;;17.48;96.93
81125;BME280;71444;52.114;5.424;2023-07-31T10:40:37;100682.09;;;17.54;96.91
81125;BME280;71444;52.114;5.424;2023-07-31T10:43:26;100674.31;;;17.64;96.74
81125;BME280;71444;52.114;5.424;2023-07-31T10:46:14;100676.00;;;17.72;95.81
81125;BME280;71444;52.114;5.424;2023-07-31T10:49:03;100684.13;;;17.85;95.88
81125;BME280;71444;52.114;5.424;2023-07-31T10:51:51;100671.69;;;17.96;96.34
81125;BME280;71444;52.114;5.424;2023-07-31T10:54:43;100671.22;;;18.05;94.68
81125;BME280;71444;52.114;5.424;2023-07-31T10:57:35;100674.34;;;18.16;94.81
81125;BME280;71444;52.114;5.424;2023-07-31T11:00:28;100680.88;;;18.15;94.01
81125;BME280;71444;52.114;5.424;2023-07-31T11:03:18;100673.72;;;18.14;93.89
81125;BME280;71444;52.114;5.424;2023-07-31T11:06:10;100678.06;;;18.28;94.20
81125;BME280;71444;52.114;5.424;2023-07-31T11:08:58;100675.69;;;18.38;94.37
81125;BME280;71444;52.114;5.424;2023-07-31T11:11:46;100681.31;;;18.50;94.27
81125;BME280;71444;52.114;5.424;2023-07-31T11:14:38;100688.22;;;18.52;94.63
81125;BME280;71444;52.114;5.424;2023-07-31T11:17:26;100681.13;;;18.45;95.07
81125;BME280;71444;52.114;5.424;2023-07-31T11:20:15;100677.44;;;18.26;95.01
81125;BME280;71444;52.114;5.424;2023-07-31T11:23:08;100668.03;;;18.15;95.22
81125;BME280;71444;52.114;5.424;2023-07-31T11:26:00;100674.78;;;18.13;95.90
81125;BME280;71444;52.114;5.424;2023-07-31T11:28:50;100678.16;;;18.08;96.07
81125;BME280;71444;52.114;5.424;2023-07-31T11:31:45;100666.00;;;17.97;96.73
81125;BME280;71444;52.114;5.424;2023-07-31T11:34:51;100667.91;;;17.97;96.96
81125;BME280;71444;52.114;5.424;2023-07-31T11:37:43;100668.56;;;17.92;97.41
81125;BME280;71444;52.114;5.424;2023-07-31T11:40:44;100665.00;;;17.85;97.05
81125;BME280;71444;52.114;5.424;2023-07-31T11:43:32;100662.94;;;17.81;97.46
81125;BME280;71444;52.114;5.424;2023-07-31T11:46:18;100668.41;;;17.81;97.71
81125;BME280;71444;52.114;5.424;2023-07-31T11:49:08;100667.16;;;17.76;97.69
81125;BME280;71444;52.114;5.424;2023-07-31T11:51:57;100666.31;;;17.63;97.21
81125;BME280;71444;52.114;5.424;2023-07-31T11:54:46;100662.13;;;17.60;97.61
81125;BME280;71444;52.114;5.424;2023-07-31T11:57:34;100660.03;;;17.56;97.38
81125;BME280;71444;52.114;5.424;2023-07-31T12:00:26;100646.59;;;17.54;97.44
81125;BME280;71444;52.114;5.424;2023-07-31T12:03:15;100658.13;;;17.56;97.94
81125;BME280;71444;52.114;5.424;2023-07-31T12:06:04;100660.88;;;17.63;98.11
81125;BME280;71444;52.114;5.424;2023-07-31T12:08:52;100659.81;;;17.70;97.78
81125;BME280;71444;52.114;5.424;2023-07-31T12:11:45;100668.19;;;17.82;97.49
81125;BME280;71444;52.114;5.424;2023-07-31T12:14:41;100661.22;;;17.93;97.28
81125;BME280;71444;52.114;5.424;2023-07-31T12:17:25;100667.28;;;18.01;96.33
81125;BME280;71444;52.114;5.424;2023-07-31T12:20:13;100662.81;;;18.07;96.19
81125;BME280;71444;52.114;5.424;2023-07-31T12:23:03;100657.13;;;18.09;95.69
81125;BME280;71444;52.114;5.424;2023-07-31T12:25:46;100654.84;;;18.05;95.54
81125;BME280;71444;52.114;5.424;2023-07-31T12:28:26;100651.03;;;18.06;95.52
81125;BME280;71444;52.114;5.424;2023-07-31T12:31:20;100649.28;;;18.19;94.77
81125;BME280;71444;52.114;5.424;2023-07-31T12:34:17;100637.88;;;18.28;95.41
81125;BME280;71444;52.114;5.424;2023-07-31T12:37:09;100630.81;;;18.21;95.33
81125;BME280;71444;52.114;5.424;2023-07-31T12:39:48;100630.00;;;18.14;96.01
81125;BME280;71444;52.114;5.424;2023-07-31T12:42:30;100628.47;;;18.18;96.02
81125;BME280;71444;52.114;5.424;2023-07-31T12:45:15;100627.44;;;18.19;94.81
81125;BME280;71444;52.114;5.424;2023-07-31T12:47:55;100628.47;;;18.24;94.90
81125;BME280;71444;52.114;5.424;2023-07-31T12:50:39;100635.38;;;18.27;95.60
81125;BME280;71444;52.114;5.424;2023-07-31T12:53:19;100623.81;;;18.25;94.49
81125;BME280;71444;52.114;5.424;2023-07-31T12:56:04;100623.44;;;18.21;95.43
81125;BME280;71444;52.114;5.424;2023-07-31T12:58:44;100618.13;;;18.26;95.65
81125;BME280;71444;52.114;5.424;2023-07-31T13:01:23;100621.06;;;18.31;95.13
81125;BME280;71444;52.114;5.424;2023-07-31T13:04:03;100614.91;;;18.36;94.81
81125;BME280;71444;52.114;5.424;2023-07-31T13:06:43;100617.03;;;18.34;95.91
81125;BME280;71444;52.114;5.424;2023-07-31T13:09:32;100616.91;;;18.22;96.41
81125;BME280;71444;52.114;5.424;2023-07-31T13:12:12;100622.63;;;18.14;96.55
81125;BME280;71444;52.114;5.424;2023-07-31T13:15:06;100621.41;;;18.10;96.75
81125;BME280;71444;52.114;5.424;2023-07-31T13:17:46;100611.72;;;18.08;97.19
81125;BME280;71444;52.114;5.424;2023-07-31T13:20:30;100616.94;;;18.16;97.01
81125;BME280;71444;52.114;5.424;2023-07-31T13:23:21;100617.16;;;18.14;97.51
81125;BME280;71444;52.114;5.424;2023-07-31T13:26:01;100610.72;;;18.33;97.78
81125;BME280;71444;52.114;5.424;2023-07-31T13:28:43;100601.84;;;18.38;97.86
81125;BME280;71444;52.114;5.424;2023-07-31T13:31:23;100591.59;;;18.33;96.93
81125;BME280;71444;52.114;5.424;2023-07-31T13:34:03;100583.88;;;18.24;96.59
81125;BME280;71444;52.114;5.424;2023-07-31T13:36:43;100601.97;;;18.18;96.42
81125;BME280;71444;52.114;5.424;2023-07-31T13:39:22;100583.75;;;18.12;97.61
81125;BME280;71444;52.114;5.424;2023-07-31T13:41:51;100590.91;;;18.06;98.10
81125;BME280;71444;52.114;5.424;2023-07-31T13:44:40;100589.69;;;18.02;98.37
81125;BME280;71444;52.114;5.424;2023-07-31T13:47:20;100583.19;;;17.97;98.54
81125;BME280;71444;52.114;5.424;2023-07-31T13:50:08;100579.03;;;17.88;98.84
81125;BME280;71444;52.114;5.424;2023-07-31T13:52:57;100578.88;;;17.83;99.36
81125;BME280;71444;52.114;5.424;2023-07-31T13:55:37;100576.38;;;17.81;99.61
81125;BME280;71444;52.114;5.424;2023-07-31T13:58:18;100577.38;;;17.87;99.86
81125;BME280;71444;52.114;5.424;2023-07-31T14:00:59;100583.41;;;17.95;99.50
81125;BME280;71444;52.114;5.424;2023-07-31T14:03:54;100585.09;;;17.96;99.85
81125;BME280;71444;52.114;5.424;2023-07-31T14:06:42;100581.53;;;17.96;99.54
81125;BME280;71444;52.114;5.424;2023-07-31T14:09:29;100579.22;;;17.99;100.00
81125;BME280;71444;52.114;5.424;2023-07-31T14:12:18;100585.09;;;17.96;99.70
81125;BME280;71444;52.114;5.424;2023-07-31T14:15:10;100584.47;;;17.94;99.92
81125;BME280;71444;52.114;5.424;2023-07-31T14:17:49;100582.59;;;17.88;100.00
81125;BME280;71444;52.114;5.424;2023-07-31T14:20:38;100578.25;;;17.81;99.71